MSR990 HEPS-HECA
Flight info
| Callsign | MSR990 |
|---|---|
| Flight time | 0h 25m |
| Altitude | 14000 |
| Route | PSD V602 CVO |
| Aircraft | B738/M-SDE2E3FGHIRWXY/LB1 |
Departure
| Time | 2026-04-16 01:40 |
|---|---|
| Airport | Port Said International Airport (HEPS) |
Arrival
| Time | 2026-04-16 02:06 |
|---|---|
| Airport | Cairo International Airport (HECA) |
| Time | Latitude | Longitude | Altitude | Speed | Heading |
|---|---|---|---|---|---|
| 2026-04-16 01:12 | 31.28068 | 32.24156 | 15 ft | 0 kts | 352° |
| 2026-04-16 01:30 | 31.28033 | 32.24178 | 16 ft | 0 kts | 26° |
| 2026-04-16 01:33 | 31.28027 | 32.24175 | 16 ft | 2 kts | 21° |
| 2026-04-16 01:33 | 31.28012 | 32.24171 | 16 ft | 3 kts | 336° |
| 2026-04-16 01:34 | 31.28005 | 32.24178 | 19 ft | 3 kts | 268° |
| 2026-04-16 01:34 | 31.28007 | 32.24202 | 17 ft | 3 kts | 268° |
| 2026-04-16 01:34 | 31.28006 | 32.24223 | 18 ft | 2 kts | 285° |
| 2026-04-16 01:34 | 31.28002 | 32.24240 | 15 ft | 2 kts | 285° |
| 2026-04-16 01:35 | 31.28001 | 32.24242 | 15 ft | 0 kts | 285° |
| 2026-04-16 01:37 | 31.28007 | 32.24215 | 18 ft | 7 kts | 284° |
| 2026-04-16 01:37 | 31.28012 | 32.24161 | 15 ft | 7 kts | 258° |
| 2026-04-16 01:37 | 31.27980 | 32.24126 | 15 ft | 7 kts | 204° |
| 2026-04-16 01:38 | 31.27936 | 32.24119 | 17 ft | 6 kts | 173° |
| 2026-04-16 01:38 | 31.27913 | 32.24140 | 16 ft | 6 kts | 125° |
| 2026-04-16 01:38 | 31.27899 | 32.24177 | 18 ft | 0 kts | 110° |
| 2026-04-16 01:39 | 31.27896 | 32.24187 | 17 ft | 10 kts | 110° |
| 2026-04-16 01:39 | 31.27792 | 32.24600 | 16 ft | 96 kts | 105° |
| 2026-04-16 01:39 | 31.27538 | 32.25634 | 95 ft | 155 kts | 106° |
| 2026-04-16 01:40 | 31.27320 | 32.26499 | 454 ft | 174 kts | 104° |
| 2026-04-16 01:40 | 31.26763 | 32.27903 | 968 ft | 206 kts | 125° |
| 2026-04-16 01:40 | 31.25736 | 32.28994 | 2029 ft | 195 kts | 148° |
| 2026-04-16 01:40 | 31.24559 | 32.29575 | 3321 ft | 178 kts | 162° |
| 2026-04-16 01:41 | 31.23274 | 32.29666 | 3858 ft | 202 kts | 186° |
| 2026-04-16 01:41 | 31.21867 | 32.29253 | 4389 ft | 209 kts | 199° |
| 2026-04-16 01:41 | 31.20603 | 32.28569 | 5407 ft | 188 kts | 195° |
| 2026-04-16 01:41 | 31.19388 | 32.28071 | 6159 ft | 194 kts | 205° |
| 2026-04-16 01:42 | 31.18095 | 32.27305 | 6369 ft | 220 kts | 202° |
| 2026-04-16 01:42 | 31.16602 | 32.26604 | 6547 ft | 244 kts | 197° |
| 2026-04-16 01:42 | 31.14889 | 32.26017 | 6752 ft | 270 kts | 192° |
| 2026-04-16 01:42 | 31.13004 | 32.25575 | 7285 ft | 280 kts | 188° |
| 2026-04-16 01:43 | 31.11062 | 32.25283 | 8083 ft | 282 kts | 185° |
| 2026-04-16 01:43 | 31.09107 | 32.25111 | 8914 ft | 283 kts | 183° |
| 2026-04-16 01:43 | 31.07128 | 32.25024 | 9715 ft | 286 kts | 181° |
| 2026-04-16 01:43 | 31.05117 | 32.24998 | 10266 ft | 297 kts | 180° |
| 2026-04-16 01:44 | 31.02992 | 32.25014 | 10606 ft | 315 kts | 180° |
| 2026-04-16 01:44 | 31.00731 | 32.25062 | 10850 ft | 335 kts | 179° |
| 2026-04-16 01:44 | 30.98320 | 32.25136 | 10999 ft | 357 kts | 179° |
| 2026-04-16 01:44 | 30.95780 | 32.25231 | 11263 ft | 372 kts | 179° |
| 2026-04-16 01:45 | 30.93152 | 32.25338 | 11630 ft | 383 kts | 179° |
| 2026-04-16 01:45 | 30.90451 | 32.25455 | 12049 ft | 392 kts | 179° |
| 2026-04-16 01:45 | 30.87702 | 32.25576 | 12621 ft | 395 kts | 179° |
| 2026-04-16 01:45 | 30.84963 | 32.25699 | 13358 ft | 394 kts | 179° |
| 2026-04-16 01:46 | 30.82225 | 32.25821 | 13705 ft | 393 kts | 179° |
| 2026-04-16 01:46 | 30.79491 | 32.25942 | 13781 ft | 404 kts | 179° |
| 2026-04-16 01:46 | 30.76653 | 32.26066 | 13787 ft | 414 kts | 179° |
| 2026-04-16 01:46 | 30.73773 | 32.26193 | 13779 ft | 412 kts | 179° |
| 2026-04-16 01:47 | 30.70912 | 32.26320 | 13778 ft | 412 kts | 179° |
| 2026-04-16 01:47 | 30.68054 | 32.26446 | 13778 ft | 411 kts | 179° |
| 2026-04-16 01:47 | 30.65195 | 32.26572 | 13781 ft | 411 kts | 180° |
| 2026-04-16 01:47 | 30.62361 | 32.26283 | 13768 ft | 408 kts | 197° |
| 2026-04-16 01:48 | 30.59799 | 32.24938 | 13786 ft | 405 kts | 214° |
| 2026-04-16 01:48 | 30.57666 | 32.22810 | 13364 ft | 406 kts | 231° |
| 2026-04-16 01:48 | 30.56057 | 32.20148 | 12931 ft | 399 kts | 237° |
| 2026-04-16 01:48 | 30.54549 | 32.17465 | 12470 ft | 396 kts | 237° |
| 2026-04-16 01:49 | 30.53053 | 32.14787 | 12014 ft | 394 kts | 237° |
| 2026-04-16 01:49 | 30.51559 | 32.12123 | 11529 ft | 394 kts | 237° |
| 2026-04-16 01:49 | 30.50055 | 32.09461 | 11044 ft | 394 kts | 236° |
| 2026-04-16 01:49 | 30.48549 | 32.06814 | 10565 ft | 393 kts | 236° |
| 2026-04-16 01:50 | 30.47039 | 32.04172 | 10095 ft | 392 kts | 236° |
| 2026-04-16 01:50 | 30.45536 | 32.01551 | 9661 ft | 388 kts | 236° |
| 2026-04-16 01:50 | 30.44051 | 31.98967 | 9236 ft | 381 kts | 236° |
| 2026-04-16 01:50 | 30.42599 | 31.96443 | 8802 ft | 373 kts | 236° |
| 2026-04-16 01:51 | 30.41174 | 31.93967 | 8300 ft | 367 kts | 236° |
| 2026-04-16 01:51 | 30.39777 | 31.91541 | 7813 ft | 355 kts | 236° |
| 2026-04-16 01:51 | 30.38429 | 31.89203 | 7321 ft | 343 kts | 235° |
| 2026-04-16 01:51 | 30.37128 | 31.86945 | 6838 ft | 332 kts | 235° |
| 2026-04-16 01:52 | 30.35862 | 31.84752 | 6371 ft | 323 kts | 235° |
| 2026-04-16 01:52 | 30.34642 | 31.82637 | 5888 ft | 316 kts | 235° |
| 2026-04-16 01:52 | 30.33432 | 31.80542 | 5397 ft | 310 kts | 236° |
| 2026-04-16 01:52 | 30.32244 | 31.78487 | 4914 ft | 305 kts | 236° |
| 2026-04-16 01:53 | 30.31075 | 31.76465 | 4432 ft | 300 kts | 236° |
| 2026-04-16 01:53 | 30.29918 | 31.74464 | 3943 ft | 297 kts | 236° |
| 2026-04-16 01:53 | 30.28773 | 31.72486 | 3460 ft | 295 kts | 236° |
| 2026-04-16 01:53 | 30.27634 | 31.70518 | 2986 ft | 293 kts | 236° |
| 2026-04-16 01:54 | 30.26509 | 31.68576 | 2622 ft | 286 kts | 236° |
| 2026-04-16 01:54 | 30.25427 | 31.66708 | 2531 ft | 274 kts | 236° |
| 2026-04-16 01:54 | 30.24372 | 31.64889 | 2508 ft | 271 kts | 235° |
| 2026-04-16 01:54 | 30.23322 | 31.63077 | 2511 ft | 272 kts | 235° |
| 2026-04-16 01:55 | 30.22266 | 31.61257 | 2505 ft | 274 kts | 235° |
| 2026-04-16 01:55 | 30.21205 | 31.59430 | 2505 ft | 274 kts | 235° |
| 2026-04-16 01:55 | 30.20141 | 31.57598 | 2506 ft | 274 kts | 235° |
| 2026-04-16 01:55 | 30.19080 | 31.55772 | 2500 ft | 274 kts | 235° |
| 2026-04-16 01:56 | 30.18015 | 31.53939 | 2493 ft | 274 kts | 236° |
| 2026-04-16 01:56 | 30.16954 | 31.52116 | 2501 ft | 273 kts | 235° |
| 2026-04-16 01:56 | 30.15894 | 31.50293 | 2495 ft | 273 kts | 235° |
| 2026-04-16 01:56 | 30.14869 | 31.48531 | 2486 ft | 273 kts | 235° |
| 2026-04-16 01:57 | 30.13809 | 31.46710 | 2497 ft | 273 kts | 235° |
| 2026-04-16 01:57 | 30.12750 | 31.44891 | 2500 ft | 272 kts | 235° |
| 2026-04-16 01:57 | 30.11704 | 31.43096 | 2478 ft | 263 kts | 235° |
| 2026-04-16 01:57 | 30.10709 | 31.41388 | 2468 ft | 249 kts | 235° |
| 2026-04-16 01:58 | 30.09779 | 31.39795 | 2466 ft | 236 kts | 235° |
| 2026-04-16 01:58 | 30.08897 | 31.38229 | 2479 ft | 230 kts | 239° |
| 2026-04-16 01:58 | 30.08106 | 31.36623 | 2488 ft | 228 kts | 240° |
| 2026-04-16 01:58 | 30.07350 | 31.35042 | 2480 ft | 222 kts | 240° |
| 2026-04-16 01:59 | 30.06613 | 31.33503 | 2478 ft | 218 kts | 240° |
| 2026-04-16 01:59 | 30.05882 | 31.31982 | 2497 ft | 216 kts | 240° |
| 2026-04-16 01:59 | 30.05149 | 31.30464 | 2493 ft | 217 kts | 240° |
| 2026-04-16 01:59 | 30.04409 | 31.28938 | 2508 ft | 221 kts | 240° |
| 2026-04-16 02:00 | 30.03649 | 31.27375 | 2503 ft | 224 kts | 240° |
| 2026-04-16 02:00 | 30.02888 | 31.25809 | 2506 ft | 223 kts | 240° |
| 2026-04-16 02:00 | 30.02130 | 31.24251 | 2484 ft | 222 kts | 240° |
| 2026-04-16 02:00 | 30.01227 | 31.22838 | 2470 ft | 216 kts | 212° |
| 2026-04-16 02:01 | 29.99870 | 31.22407 | 2486 ft | 198 kts | 166° |
| 2026-04-16 02:01 | 29.98680 | 31.23232 | 2537 ft | 215 kts | 123° |
| 2026-04-16 02:01 | 29.98260 | 31.24861 | 2489 ft | 212 kts | 81° |
| 2026-04-16 02:01 | 29.98778 | 31.26398 | 2515 ft | 205 kts | 62° |
| 2026-04-16 02:02 | 29.99486 | 31.27806 | 2481 ft | 198 kts | 57° |
| 2026-04-16 02:02 | 30.00239 | 31.29104 | 2469 ft | 192 kts | 55° |
| 2026-04-16 02:02 | 30.01057 | 31.30333 | 2509 ft | 195 kts | 51° |
| 2026-04-16 02:02 | 30.01938 | 31.31533 | 2500 ft | 196 kts | 50° |
| 2026-04-16 02:03 | 30.02835 | 31.32729 | 2508 ft | 197 kts | 50° |
| 2026-04-16 02:03 | 30.03729 | 31.33920 | 2481 ft | 193 kts | 50° |
| 2026-04-16 02:03 | 30.04545 | 31.35009 | 2472 ft | 182 kts | 50° |
| 2026-04-16 02:04 | 30.06155 | 31.37158 | 2511 ft | 176 kts | 50° |
| 2026-04-16 02:04 | 30.06959 | 31.38216 | 2615 ft | 177 kts | 50° |
| 2026-04-16 02:04 | 30.07794 | 31.39357 | 2173 ft | 191 kts | 50° |
| 2026-04-16 02:04 | 30.08697 | 31.40508 | 1332 ft | 196 kts | 48° |
| 2026-04-16 02:05 | 30.09533 | 31.41699 | 737 ft | 185 kts | 52° |
| 2026-04-16 02:05 | 30.10353 | 31.42727 | 486 ft | 162 kts | 49° |
| 2026-04-16 02:05 | 30.11036 | 31.43652 | 379 ft | 137 kts | 49° |
| 2026-04-16 02:05 | 30.11548 | 31.44342 | 372 ft | 60 kts | 49° |
| 2026-04-16 02:06 | 30.11688 | 31.44526 | 371 ft | 19 kts | 49° |
| 2026-04-16 02:06 | 30.11781 | 31.44648 | 371 ft | 20 kts | 49° |
| 2026-04-16 02:06 | 30.11875 | 31.44763 | 370 ft | 19 kts | 39° |
| 2026-04-16 02:06 | 30.11990 | 31.44748 | 373 ft | 19 kts | 311° |
| 2026-04-16 02:07 | 30.11976 | 31.44613 | 373 ft | 18 kts | 226° |
| 2026-04-16 02:07 | 30.11895 | 31.44503 | 373 ft | 18 kts | 230° |
| 2026-04-16 02:07 | 30.11854 | 31.44441 | 373 ft | 7 kts | 243° |
| 2026-04-16 02:07 | 30.11850 | 31.44390 | 373 ft | 6 kts | 285° |
| 2026-04-16 02:08 | 30.11869 | 31.44344 | 373 ft | 6 kts | 284° |
| 2026-04-16 02:08 | 30.11857 | 31.44296 | 373 ft | 6 kts | 234° |
| 2026-04-16 02:08 | 30.11830 | 31.44256 | 373 ft | 6 kts | 232° |
| 2026-04-16 02:08 | 30.11803 | 31.44218 | 374 ft | 6 kts | 225° |
| 2026-04-16 02:09 | 30.11774 | 31.44182 | 373 ft | 6 kts | 228° |
| 2026-04-16 02:09 | 30.11746 | 31.44147 | 373 ft | 6 kts | 228° |
| 2026-04-16 02:09 | 30.11720 | 31.44111 | 373 ft | 6 kts | 230° |
| 2026-04-16 02:09 | 30.11694 | 31.44076 | 373 ft | 6 kts | 230° |
| 2026-04-16 02:10 | 30.11669 | 31.44042 | 373 ft | 6 kts | 230° |
| 2026-04-16 02:10 | 30.11644 | 31.44008 | 373 ft | 6 kts | 230° |
| 2026-04-16 02:10 | 30.11609 | 31.43960 | 373 ft | 10 kts | 230° |
| 2026-04-16 02:10 | 30.11557 | 31.43890 | 373 ft | 13 kts | 230° |
| 2026-04-16 02:11 | 30.11489 | 31.43802 | 373 ft | 16 kts | 228° |
| 2026-04-16 02:11 | 30.11410 | 31.43698 | 373 ft | 19 kts | 229° |
| 2026-04-16 02:11 | 30.11320 | 31.43578 | 373 ft | 21 kts | 229° |
| 2026-04-16 02:11 | 30.11254 | 31.43432 | 373 ft | 22 kts | 277° |
| 2026-04-16 02:12 | 30.11356 | 31.43311 | 373 ft | 22 kts | 319° |
| 2026-04-16 02:12 | 30.11473 | 31.43193 | 373 ft | 23 kts | 319° |
| 2026-04-16 02:12 | 30.11598 | 31.43068 | 373 ft | 24 kts | 319° |
| 2026-04-16 02:12 | 30.11732 | 31.42938 | 373 ft | 26 kts | 319° |
| 2026-04-16 02:13 | 30.11832 | 31.42838 | 373 ft | 15 kts | 319° |
| 2026-04-16 02:13 | 30.11919 | 31.42751 | 373 ft | 17 kts | 319° |
| 2026-04-16 02:13 | 30.12016 | 31.42655 | 372 ft | 20 kts | 319° |
| 2026-04-16 02:13 | 30.12104 | 31.42566 | 372 ft | 11 kts | 319° |
| 2026-04-16 02:14 | 30.12161 | 31.42513 | 374 ft | 10 kts | 321° |
| 2026-04-16 02:14 | 30.12209 | 31.42444 | 373 ft | 12 kts | 278° |
| 2026-04-16 02:14 | 30.12168 | 31.42355 | 374 ft | 14 kts | 230° |
| 2026-04-16 02:14 | 30.12100 | 31.42263 | 374 ft | 16 kts | 229° |
| 2026-04-16 02:15 | 30.12022 | 31.42158 | 374 ft | 18 kts | 229° |
| 2026-04-16 02:15 | 30.11933 | 31.42039 | 374 ft | 21 kts | 229° |
| 2026-04-16 02:15 | 30.11834 | 31.41909 | 374 ft | 23 kts | 229° |
| 2026-04-16 02:15 | 30.11726 | 31.41767 | 373 ft | 24 kts | 229° |